Time;durP1;ratioP1;P1;durP2;ratioP2;P2;SDS_P1;SDS_P2;PMS_P1;PMS_P2;Temp;Humidity;BMP_temperature;BMP_pressure;BME280_temperature;BME280_humidity;BME280_pressure;Samples;Min_cycle;Max_cycle;Signal;HPM_P1;HPM_P2
2022/11/24 00:07:33;;;;;;;23.2;14;;;;;;;1.5;87.2;97830;;;;
2022/11/24 00:17:33;;;;;;;23.2;14;;;;;;;1.5;87;97840;;;;
2022/11/24 00:28:33;;;;;;;23.2;14;;;;;;;1.5;86.7;97850;;;;
2022/11/24 00:39:33;;;;;;;27.2;15.9;;;;;;;1.5;86.6;97860;;;;
2022/11/24 00:50:33;;;;;;;27.2;15.9;;;;;;;1.5;86.6;97860;;;;
2022/11/24 01:01:33;;;;;;;27.2;15.9;;;;;;;1.6;86.5;97860;;;;
2022/11/24 01:12:33;;;;;;;31.4;16.5;;;;;;;1.7;86.3;97860;;;;
2022/11/24 01:23:33;;;;;;;31.4;16.5;;;;;;;1.8;86.4;97870;;;;
2022/11/24 01:34:33;;;;;;;31.4;16.5;;;;;;;1.9;86.2;97880;;;;
2022/11/24 01:44:33;;;;;;;28.6;17.9;;;;;;;1.9;85.8;97880;;;;
2022/11/24 01:55:33;;;;;;;28.6;17.9;;;;;;;1.9;85.7;97900;;;;
2022/11/24 02:05:33;;;;;;;28.6;17.9;;;;;;;2.1;85.6;97910;;;;
2022/11/24 02:15:33;;;;;;;30.5;16.4;;;;;;;1.9;84.8;97910;;;;
2022/11/24 02:25:33;;;;;;;30.5;16.4;;;;;;;1.9;85.3;97910;;;;
2022/11/24 02:35:33;;;;;;;30.5;16.4;;;;;;;1.9;85.3;97920;;;;
2022/11/24 02:46:33;;;;;;;31.7;18.1;;;;;;;1.8;85.5;97910;;;;
2022/11/24 02:57:33;;;;;;;31.7;18.1;;;;;;;1.9;85.5;97920;;;;
2022/11/24 03:08:33;;;;;;;39.6;18.3;;;;;;;2;85.1;97920;;;;
2022/11/24 03:18:33;;;;;;;39.6;18.3;;;;;;;1.9;85;97920;;;;
2022/11/24 03:28:33;;;;;;;39.6;18.3;;;;;;;1.8;85.3;97920;;;;
2022/11/24 03:39:33;;;;;;;30.9;17.7;;;;;;;1.8;85.7;97930;;;;
2022/11/24 03:49:33;;;;;;;30.9;17.7;;;;;;;1.7;85.7;97940;;;;
2022/11/24 04:00:33;;;;;;;30.9;17.7;;;;;;;1.8;86.1;97950;;;;
2022/11/24 04:21:33;;;;;;;30.1;18.2;;;;;;;1.8;86.3;97950;;;;
2022/11/24 04:31:33;;;;;;;30.1;18.2;;;;;;;1.9;86.2;97960;;;;
2022/11/24 04:42:33;;;;;;;33.4;17;;;;;;;1.9;86.1;97970;;;;
2022/11/24 04:52:33;;;;;;;33.4;17;;;;;;;1.8;86.1;97980;;;;
2022/11/24 05:03:33;;;;;;;33.4;17;;;;;;;1.9;86.4;97990;;;;
2022/11/24 05:13:33;;;;;;;32.3;17.7;;;;;;;1.8;86.3;97990;;;;
2022/11/24 05:23:33;;;;;;;32.3;17.7;;;;;;;1.8;86.7;97990;;;;
2022/11/24 05:34:33;;;;;;;32.3;17.7;;;;;;;1.9;86.6;98000;;;;
2022/11/24 05:45:33;;;;;;;32.5;18.1;;;;;;;1.8;86.7;98010;;;;
2022/11/24 05:55:33;;;;;;;32.5;18.1;;;;;;;1.7;87;98020;;;;
2022/11/24 06:06:33;;;;;;;34.6;20.2;;;;;;;1.7;87.3;98030;;;;
2022/11/24 06:17:33;;;;;;;34.6;20.2;;;;;;;1.7;87.3;98050;;;;
2022/11/24 06:28:33;;;;;;;34.6;20.2;;;;;;;1.8;87.3;98050;;;;
2022/11/24 06:38:33;;;;;;;37.1;20.1;;;;;;;1.8;87.4;98060;;;;
2022/11/24 06:49:33;;;;;;;37.1;20.1;;;;;;;1.8;87.8;98070;;;;
2022/11/24 06:59:33;;;;;;;37.1;20.1;;;;;;;1.9;87.9;98080;;;;
2022/11/24 07:10:33;;;;;;;38.6;19.4;;;;;;;2;88;98090;;;;
2022/11/24 07:20:33;;;;;;;38.6;19.4;;;;;;;2.1;87.9;98090;;;;
2022/11/24 07:30:33;;;;;;;38.6;19.4;;;;;;;2.2;87.9;98100;;;;
2022/11/24 07:41:33;;;;;;;35.8;19.5;;;;;;;2.2;87.7;98100;;;;
2022/11/24 07:51:33;;;;;;;35.8;19.5;;;;;;;2.3;87.6;98100;;;;
2022/11/24 08:02:33;;;;;;;35.8;19.5;;;;;;;2.3;87.6;98110;;;;
2022/11/24 08:12:33;;;;;;;40.6;22.8;;;;;;;2.4;87.8;98120;;;;
2022/11/24 08:23:33;;;;;;;40.6;22.8;;;;;;;2.3;88;98130;;;;
2022/11/24 08:34:33;;;;;;;40.6;22.8;;;;;;;2.3;88.3;98130;;;;
2022/11/24 08:44:33;;;;;;;47.4;25;;;;;;;2.3;88.5;98140;;;;
2022/11/24 08:55:33;;;;;;;47.4;25;;;;;;;2.4;88.3;98150;;;;
2022/11/24 09:05:33;;;;;;;47.4;25;;;;;;;2.3;88.2;98150;;;;
2022/11/24 09:16:33;;;;;;;30.4;18.7;;;;;;;2.4;88;98150;;;;
2022/11/24 09:27:33;;;;;;;30.4;18.7;;;;;;;2.5;87.9;98150;;;;
2022/11/24 09:37:33;;;;;;;32.4;18.9;;;;;;;2.4;87.6;98160;;;;
2022/11/24 09:48:33;;;;;;;32.4;18.9;;;;;;;2.4;87.7;98160;;;;
2022/11/24 09:59:33;;;;;;;32.4;18.9;;;;;;;2.3;87.8;98160;;;;
2022/11/24 10:09:33;;;;;;;29.2;15.2;;;;;;;2.3;88;98160;;;;
2022/11/24 10:20:33;;;;;;;29.2;15.2;;;;;;;2.2;88.2;98160;;;;
2022/11/24 10:31:33;;;;;;;29.2;15.2;;;;;;;2.3;88.3;98160;;;;
2022/11/24 10:42:35;;;;;;;34.7;20.1;;;;;;;2.4;88.2;98160;;;;
2022/11/24 10:53:33;;;;;;;34.7;20.1;;;;;;;2.5;88;98160;;;;
2022/11/24 11:03:33;;;;;;;34.7;20.1;;;;;;;2.5;87.8;98160;;;;
2022/11/24 11:14:34;;;;;;;49.8;26.9;;;;;;;2.5;87.7;98170;;;;
2022/11/24 11:24:33;;;;;;;49.8;26.9;;;;;;;2.6;87.7;98170;;;;
2022/11/24 11:35:33;;;;;;;58.9;32.6;;;;;;;2.4;88.2;98160;;;;
2022/11/24 11:46:33;;;;;;;58.9;32.6;;;;;;;2.3;88.7;98170;;;;
2022/11/24 11:56:33;;;;;;;58.9;32.6;;;;;;;2.3;89;98160;;;;
2022/11/24 12:07:33;;;;;;;63.5;32.9;;;;;;;2.3;89.2;98160;;;;
2022/11/24 12:17:33;;;;;;;63.5;32.9;;;;;;;2.4;89.2;98160;;;;
2022/11/24 12:28:33;;;;;;;63.5;32.9;;;;;;;2.2;89.5;98160;;;;
2022/11/24 12:38:33;;;;;;;50;26.7;;;;;;;2.2;89.6;98160;;;;
2022/11/24 12:48:33;;;;;;;50;26.7;;;;;;;2.2;89.5;98180;;;;
2022/11/24 12:58:33;;;;;;;50;26.7;;;;;;;2.1;89.6;98180;;;;
2022/11/24 13:08:33;;;;;;;53.5;28.7;;;;;;;2;89.7;98190;;;;
2022/11/24 13:18:33;;;;;;;53.5;28.7;;;;;;;2;90.1;98190;;;;
2022/11/24 13:29:33;;;;;;;53.5;28.7;;;;;;;1.9;90.5;98210;;;;
2022/11/24 13:39:33;;;;;;;52;29.7;;;;;;;1.9;90.5;98220;;;;
2022/11/24 13:50:33;;;;;;;52;29.7;;;;;;;1.8;90.5;98230;;;;
2022/11/24 14:00:33;;;;;;;52;29.7;;;;;;;1.8;90.6;98240;;;;
2022/11/24 14:11:33;;;;;;;60.1;29.9;;;;;;;1.8;90.6;98260;;;;
2022/11/24 14:21:33;;;;;;;60.1;29.9;;;;;;;1.7;90.6;98280;;;;
2022/11/24 14:32:33;;;;;;;60.1;29.9;;;;;;;1.6;90.7;98300;;;;
2022/11/24 14:42:33;;;;;;;45.8;25.8;;;;;;;1.4;91.3;98300;;;;
2022/11/24 14:52:33;;;;;;;45.8;25.8;;;;;;;1.4;91.8;98320;;;;
2022/11/24 15:02:33;;;;;;;45.8;25.8;;;;;;;1.4;91.8;98330;;;;
2022/11/24 15:13:35;;;;;;;44.5;24.2;;;;;;;1.5;91.7;98340;;;;
2022/11/24 15:23:33;;;;;;;44.5;24.2;;;;;;;1.5;91.6;98350;;;;
2022/11/24 15:34:33;;;;;;;44.5;24.2;;;;;;;1.5;91.6;98360;;;;
2022/11/24 15:45:33;;;;;;;44.3;26.4;;;;;;;1.5;91.5;98380;;;;
2022/11/24 15:55:33;;;;;;;44.3;26.4;;;;;;;1.4;91.5;98380;;;;
2022/11/24 16:05:33;;;;;;;37.6;22;;;;;;;1.5;91.4;98390;;;;
2022/11/24 16:16:33;;;;;;;37.6;22;;;;;;;1.5;91.4;98400;;;;
2022/11/24 16:26:33;;;;;;;37.6;22;;;;;;;1.5;91.2;98400;;;;
2022/11/24 16:37:33;;;;;;;36.5;21.7;;;;;;;1.5;91.3;98410;;;;
2022/11/24 16:48:33;;;;;;;36.5;21.7;;;;;;;1.6;91.2;98420;;;;
2022/11/24 16:59:33;;;;;;;36.5;21.7;;;;;;;1.6;91.1;98420;;;;
2022/11/24 17:09:33;;;;;;;42.9;23.9;;;;;;;1.5;91.3;98430;;;;
2022/11/24 17:20:34;;;;;;;42.9;23.9;;;;;;;1.6;91.2;98440;;;;
2022/11/24 17:30:33;;;;;;;42.9;23.9;;;;;;;1.5;91.2;98450;;;;
2022/11/24 17:41:33;;;;;;;44.2;24.1;;;;;;;1.6;91.2;98470;;;;
2022/11/24 17:52:33;;;;;;;44.2;24.1;;;;;;;1.6;91.2;98480;;;;
2022/11/24 18:03:33;;;;;;;44.2;24.1;;;;;;;1.6;91.1;98490;;;;
2022/11/24 18:13:33;;;;;;;41.1;25.8;;;;;;;1.6;90.9;98500;;;;
2022/11/24 18:23:34;;;;;;;41.1;25.8;;;;;;;1.7;91;98510;;;;
2022/11/24 18:33:33;;;;;;;41.1;25.8;;;;;;;1.7;90.9;98510;;;;
2022/11/24 18:44:33;;;;;;;37.6;22;;;;;;;1.6;90.7;98520;;;;
2022/11/24 18:55:33;;;;;;;37.6;22;;;;;;;1.6;90.8;98530;;;;
2022/11/24 19:05:33;;;;;;;43.7;24.9;;;;;;;1.6;90.8;98530;;;;
2022/11/24 19:16:33;;;;;;;43.7;24.9;;;;;;;1.5;91;98540;;;;
2022/11/24 19:26:33;;;;;;;43.7;24.9;;;;;;;1.6;91.1;98550;;;;
2022/11/24 19:36:33;;;;;;;35.8;20.9;;;;;;;1.6;91.1;98560;;;;
2022/11/24 19:46:33;;;;;;;35.8;20.9;;;;;;;1.6;91;98570;;;;
2022/11/24 19:57:33;;;;;;;35.8;20.9;;;;;;;1.7;91;98580;;;;
2022/11/24 20:08:33;;;;;;;39.2;23.2;;;;;;;1.5;91;98590;;;;
2022/11/24 20:19:33;;;;;;;39.2;23.2;;;;;;;1.5;91.1;98600;;;;
2022/11/24 20:30:33;;;;;;;39.2;23.2;;;;;;;1.5;91.2;98610;;;;
2022/11/24 20:41:33;;;;;;;38.6;23.9;;;;;;;1.5;91.2;98630;;;;
2022/11/24 20:51:33;;;;;;;38.6;23.9;;;;;;;1.6;91.1;98630;;;;
2022/11/24 21:02:33;;;;;;;38.6;23.9;;;;;;;1.7;91.2;98650;;;;
2022/11/24 21:12:33;;;;;;;32.1;21;;;;;;;1.7;91;98650;;;;
2022/11/24 21:23:33;;;;;;;32.1;21;;;;;;;1.8;90.7;98650;;;;
2022/11/24 21:34:33;;;;;;;30.1;19.2;;;;;;;1.7;90.5;98660;;;;
2022/11/24 21:45:33;;;;;;;30.1;19.2;;;;;;;1.8;90.6;98680;;;;
2022/11/24 21:56:33;;;;;;;30.1;19.2;;;;;;;1.8;90.3;98680;;;;
2022/11/24 22:07:33;;;;;;;41.5;24.7;;;;;;;1.9;90.3;98680;;;;
2022/11/24 22:17:33;;;;;;;41.5;24.7;;;;;;;1.8;90.4;98690;;;;
2022/11/24 22:28:34;;;;;;;41.5;24.7;;;;;;;1.9;90.4;98700;;;;
2022/11/24 22:39:33;;;;;;;38;21.6;;;;;;;2;90.3;98710;;;;
2022/11/24 22:49:33;;;;;;;38;21.6;;;;;;;2;90.1;98720;;;;
2022/11/24 23:00:33;;;;;;;38;21.6;;;;;;;2;90;98720;;;;
2022/11/24 23:10:33;;;;;;;45.8;25.7;;;;;;;1.9;89.8;98730;;;;
2022/11/24 23:20:33;;;;;;;45.8;25.7;;;;;;;1.9;89.8;98740;;;;
2022/11/24 23:30:33;;;;;;;45.8;25.7;;;;;;;1.9;89.9;98730;;;;
2022/11/24 23:40:33;;;;;;;32.2;21.8;;;;;;;1.7;90.5;98720;;;;
2022/11/24 23:51:33;;;;;;;32.2;21.8;;;;;;;1.7;90.6;98720;;;;
